createdAt,value
2018-12-09T00:01:27.126Z,28.18
2018-12-09T00:03:34.086Z,27.80
2018-12-09T00:05:41.025Z,28.02
2018-12-09T00:07:47.862Z,27.93
2018-12-09T00:09:54.734Z,27.66
2018-12-09T00:12:01.358Z,28.45
2018-12-09T00:14:08.818Z,28.33
2018-12-09T00:16:16.355Z,28.71
2018-12-09T00:18:23.271Z,28.90
2018-12-09T00:20:30.948Z,28.16
2018-12-09T00:22:38.903Z,28.56
2018-12-09T00:24:45.922Z,28.22
2018-12-09T00:26:52.610Z,28.12
2018-12-09T00:28:59.742Z,28.54
2018-12-09T00:31:06.501Z,28.40
2018-12-09T00:33:13.453Z,28.83
2018-12-09T00:35:20.150Z,28.56
2018-12-09T00:37:27.049Z,27.85
2018-12-09T00:39:33.865Z,28.57
2018-12-09T00:41:40.635Z,28.27
2018-12-09T00:43:47.770Z,28.88
2018-12-09T00:45:54.552Z,28.79
2018-12-09T00:48:01.492Z,28.25
2018-12-09T00:50:08.830Z,28.87
2018-12-09T00:52:15.747Z,28.33
2018-12-09T00:54:22.636Z,29.58
2018-12-09T00:56:29.591Z,28.11
2018-12-09T00:58:36.392Z,29.29
2018-12-09T01:00:43.512Z,28.44
2018-12-09T01:02:50.659Z,28.45
2018-12-09T01:04:57.807Z,29.39
2018-12-09T01:07:04.819Z,28.83
2018-12-09T01:09:11.526Z,29.23
2018-12-09T01:11:18.888Z,29.47
2018-12-09T01:13:26.480Z,29.76
2018-12-09T01:15:33.298Z,30.14
2018-12-09T01:17:40.389Z,29.77
2018-12-09T01:19:47.154Z,29.03
2018-12-09T01:21:55.154Z,29.94
2018-12-09T01:24:01.977Z,29.08
2018-12-09T01:26:09.184Z,28.85
2018-12-09T01:28:15.890Z,29.50
2018-12-09T01:30:22.646Z,28.98
2018-12-09T01:32:29.726Z,29.90
2018-12-09T01:34:36.515Z,30.06
2018-12-09T01:36:43.430Z,29.27
2018-12-09T01:38:50.226Z,30.16
2018-12-09T01:40:57.612Z,29.11
2018-12-09T01:43:04.309Z,29.19
2018-12-09T01:45:11.423Z,29.50
2018-12-09T01:47:18.481Z,29.75
2018-12-09T01:49:25.553Z,29.40
2018-12-09T01:51:32.961Z,29.66
2018-12-09T01:54:43.193Z,28.97
2018-12-09T01:56:50.506Z,29.93
2018-12-09T01:58:57.351Z,28.76
2018-12-09T02:01:04.285Z,30.33
2018-12-09T02:03:11.058Z,29.63
2018-12-09T02:05:18.114Z,28.77
2018-12-09T02:07:25.074Z,29.50
2018-12-09T02:09:32.655Z,30.48
2018-12-09T02:11:40.296Z,30.86
2018-12-09T02:13:47.279Z,31.34
2018-12-09T02:15:54.221Z,31.34
2018-12-09T02:18:01.082Z,30.22
2018-12-09T02:20:09.106Z,30.60
2018-12-09T02:22:16.004Z,30.21
2018-12-09T02:24:23.094Z,29.81
2018-12-09T02:26:30.130Z,30.17
2018-12-09T02:28:37.038Z,30.19
2018-12-09T02:30:43.764Z,30.53
2018-12-09T02:32:51.076Z,30.38
2018-12-09T02:34:58.183Z,30.13
2018-12-09T02:37:04.881Z,29.63
2018-12-09T02:39:12.991Z,29.93
2018-12-09T02:41:19.701Z,30.11
2018-12-09T02:43:26.705Z,29.90
2018-12-09T02:45:34.267Z,29.85
2018-12-09T02:47:41.104Z,29.89
2018-12-09T02:49:47.993Z,29.80
2018-12-09T02:51:55.081Z,29.96
2018-12-09T02:54:02.473Z,30.58
2018-12-09T02:56:09.296Z,29.85
2018-12-09T02:58:16.266Z,29.56
2018-12-09T03:00:23.160Z,29.65
2018-12-09T03:02:30.629Z,29.00
2018-12-09T03:04:37.672Z,29.22
2018-12-09T03:06:44.624Z,29.50
2018-12-09T03:08:51.821Z,28.60
2018-12-09T03:10:58.619Z,30.38
2018-12-09T03:13:05.592Z,30.29
2018-12-09T03:15:12.717Z,29.44
2018-12-09T03:17:19.946Z,30.39
2018-12-09T03:19:27.096Z,30.51
2018-12-09T03:21:35.066Z,30.69
2018-12-09T03:23:42.051Z,28.46
2018-12-09T03:25:49.236Z,32.84
2018-12-09T03:27:55.862Z,29.71
2018-12-09T03:30:03.225Z,29.90
2018-12-09T03:32:10.340Z,27.73
2018-12-09T03:34:17.339Z,27.99
2018-12-09T03:36:24.453Z,28.84
2018-12-09T03:38:31.637Z,29.40
2018-12-09T03:40:38.735Z,29.07
2018-12-09T03:42:45.741Z,28.82
2018-12-09T03:44:53.260Z,28.69
2018-12-09T03:47:00.913Z,28.52
2018-12-09T03:49:07.782Z,28.79
2018-12-09T03:51:14.845Z,28.09
2018-12-09T03:53:22.016Z,28.34
2018-12-09T03:55:28.899Z,29.80
2018-12-09T03:57:35.572Z,28.00
2018-12-09T03:59:42.437Z,28.29
2018-12-09T04:01:49.321Z,29.88
2018-12-09T04:03:56.633Z,29.24
2018-12-09T04:06:03.392Z,30.92
2018-12-09T04:08:10.366Z,29.83
2018-12-09T04:10:17.146Z,30.44
2018-12-09T04:12:24.023Z,32.89
2018-12-09T04:14:31.410Z,27.52
2018-12-09T04:16:38.703Z,27.77
2018-12-09T04:18:45.483Z,28.14
2018-12-09T04:20:52.325Z,28.31
2018-12-09T04:22:59.004Z,28.79
2018-12-09T04:25:06.337Z,28.14
2018-12-09T04:27:13.230Z,29.62
2018-12-09T04:29:20.292Z,28.06
2018-12-09T04:31:27.154Z,29.58
2018-12-09T14:44:55.758Z,34.14
2018-12-09T14:47:02.657Z,33.04
2018-12-09T14:49:10.401Z,33.04
2018-12-09T14:51:17.918Z,32.81
2018-12-09T14:53:24.768Z,31.59
2018-12-09T14:55:31.606Z,31.33
2018-12-09T14:57:38.461Z,31.12
2018-12-09T14:59:45.502Z,31.11
2018-12-09T15:01:52.610Z,30.33
2018-12-09T15:03:59.997Z,30.29
2018-12-09T15:06:07.222Z,29.55
2018-12-09T15:08:14.278Z,29.05
2018-12-09T15:10:21.262Z,28.88
2018-12-09T15:12:29.337Z,29.67
2018-12-09T15:14:36.482Z,28.14
2018-12-09T15:16:43.286Z,29.39
2018-12-09T15:18:50.695Z,27.84
2018-12-09T15:20:57.417Z,28.62
2018-12-09T15:23:04.201Z,28.82
2018-12-09T15:40:37.897Z,35.64
2018-12-09T15:42:44.606Z,31.75
2018-12-09T15:44:51.748Z,32.05
2018-12-09T15:46:58.687Z,31.04
2018-12-09T15:49:05.726Z,30.47
2018-12-09T15:51:12.869Z,32.37
2018-12-09T15:53:19.534Z,30.67
2018-12-09T15:55:26.397Z,29.91
2018-12-09T15:57:33.162Z,27.63
2018-12-09T15:59:40.143Z,30.79
2018-12-09T16:01:46.946Z,28.64
2018-12-09T16:03:53.775Z,28.57
2018-12-09T16:06:00.616Z,28.91
2018-12-09T16:08:07.740Z,29.17
2018-12-09T16:10:14.795Z,29.23
2018-12-09T16:12:21.742Z,29.25
2018-12-09T16:14:28.500Z,28.92
2018-12-09T16:16:35.465Z,28.40
2018-12-09T16:18:42.528Z,29.06
2018-12-09T16:20:49.590Z,28.79
2018-12-09T16:22:56.438Z,28.67
2018-12-09T16:25:03.329Z,29.14
2018-12-09T16:27:10.428Z,29.45
2018-12-09T16:29:17.974Z,29.66
2018-12-09T16:31:25.107Z,30.53
2018-12-09T16:33:32.261Z,31.00
2018-12-09T16:35:39.170Z,29.60
2018-12-09T16:37:46.115Z,28.65
2018-12-09T16:39:52.853Z,29.55
2018-12-09T16:41:59.613Z,29.27
2018-12-09T16:44:06.968Z,28.45
2018-12-09T16:46:14.074Z,28.82
2018-12-09T16:48:20.988Z,28.94
2018-12-09T16:50:28.133Z,28.26
2018-12-09T16:52:35.069Z,29.04
2018-12-09T16:54:42.005Z,28.35
2018-12-09T16:56:48.871Z,28.38
2018-12-09T16:58:55.784Z,29.12
2018-12-09T17:01:02.582Z,29.63
2018-12-09T17:03:09.449Z,28.50
2018-12-09T17:05:16.533Z,29.54
2018-12-09T17:07:23.622Z,29.68
2018-12-09T17:09:30.629Z,30.66
2018-12-09T17:11:37.494Z,30.16
2018-12-09T17:13:44.483Z,29.68
2018-12-09T17:15:51.480Z,29.76
2018-12-09T17:17:58.174Z,29.44
2018-12-09T17:20:06.399Z,30.54
2018-12-09T17:22:14.530Z,30.16
2018-12-09T17:24:21.680Z,29.23
2018-12-09T17:26:28.680Z,29.91
2018-12-09T17:28:36.132Z,30.51
2018-12-09T17:30:42.864Z,28.93
2018-12-09T17:32:49.670Z,28.62
2018-12-09T17:34:56.860Z,28.51
2018-12-09T17:37:03.611Z,27.88
2018-12-09T17:39:10.609Z,27.37
2018-12-09T17:41:24.757Z,27.54
2018-12-09T17:43:26.185Z,28.21
2018-12-09T17:45:32.864Z,28.62
2018-12-09T17:47:39.717Z,27.60
2018-12-09T17:49:46.407Z,28.20
2018-12-09T17:51:53.003Z,28.61
2018-12-09T17:53:59.649Z,29.39
2018-12-09T17:56:06.441Z,28.32
2018-12-09T17:58:13.293Z,28.98
2018-12-09T18:00:20.167Z,28.48
2018-12-09T18:02:26.934Z,28.41
2018-12-09T18:04:33.949Z,29.36
2018-12-09T18:06:41.065Z,28.89
2018-12-09T18:08:48.012Z,28.66
2018-12-09T18:10:55.357Z,28.83
2018-12-09T18:13:02.164Z,29.16
2018-12-09T18:15:12.701Z,30.14
2018-12-09T18:17:19.512Z,29.46
2018-12-09T18:19:26.525Z,29.57
2018-12-09T18:21:33.465Z,28.73
2018-12-09T18:23:40.596Z,29.20
2018-12-09T18:25:47.353Z,29.10
2018-12-09T18:27:54.193Z,30.22
2018-12-09T18:30:01.109Z,28.83
2018-12-09T18:32:08.066Z,29.09
2018-12-09T18:34:14.923Z,28.27
2018-12-09T18:36:21.955Z,28.41
2018-12-09T18:38:29.422Z,27.75
2018-12-09T18:40:36.207Z,27.34
2018-12-09T18:42:42.886Z,27.08
2018-12-09T18:44:49.886Z,27.59
2018-12-09T18:46:56.829Z,28.02
2018-12-09T18:49:03.705Z,28.56
2018-12-09T18:51:10.645Z,28.25
2018-12-09T18:53:17.641Z,28.66
2018-12-09T18:55:24.507Z,28.88
2018-12-09T18:57:31.497Z,28.93
2018-12-09T18:59:38.214Z,28.59
2018-12-09T19:01:45.263Z,28.23
2018-12-09T19:03:51.955Z,28.86
2018-12-09T19:05:58.791Z,28.81
2018-12-09T19:08:05.831Z,29.00
2018-12-09T19:10:12.722Z,28.73
2018-12-09T19:12:19.744Z,29.27
2018-12-09T19:14:26.641Z,29.73
2018-12-09T19:16:33.301Z,29.54
2018-12-09T19:18:39.994Z,29.14
2018-12-09T19:20:46.600Z,29.35
2018-12-09T19:22:53.454Z,29.17
2018-12-09T19:25:00.289Z,28.90
2018-12-09T19:27:07.245Z,28.99
2018-12-09T19:29:14.006Z,29.09
2018-12-09T19:31:20.653Z,29.26
2018-12-09T19:33:27.493Z,29.34
2018-12-09T19:35:34.302Z,29.43
2018-12-09T19:37:41.198Z,29.50
2018-12-09T19:39:48.044Z,29.21
2018-12-09T19:41:54.996Z,28.18
2018-12-09T19:44:01.679Z,28.13
2018-12-09T19:46:08.378Z,27.88
2018-12-09T19:48:15.078Z,27.66
2018-12-09T19:50:21.873Z,27.06
2018-12-09T19:52:28.907Z,27.02
2018-12-09T19:54:35.815Z,28.90
2018-12-09T19:56:42.652Z,28.46
2018-12-09T19:58:49.520Z,28.42
2018-12-09T20:00:56.458Z,28.55
2018-12-09T20:03:04.010Z,29.53
2018-12-09T20:05:12.033Z,29.86
2018-12-09T20:07:18.776Z,29.31
2018-12-09T20:09:25.777Z,29.30
2018-12-09T20:11:32.529Z,30.24
2018-12-09T20:13:39.200Z,29.46
2018-12-09T20:15:46.106Z,29.95
2018-12-09T20:17:52.820Z,29.84
2018-12-09T20:19:59.595Z,29.96
2018-12-09T20:22:06.630Z,29.98
2018-12-09T20:24:13.638Z,30.17
2018-12-09T20:26:20.690Z,30.32
2018-12-09T20:28:28.939Z,29.71
2018-12-09T20:30:35.702Z,30.36
2018-12-09T20:32:42.477Z,30.40
2018-12-09T20:34:49.453Z,30.22
2018-12-09T20:36:56.334Z,29.56
2018-12-09T20:39:03.458Z,27.98
2018-12-09T20:41:10.090Z,28.61
2018-12-09T20:43:17.134Z,26.62
2018-12-09T20:45:24.750Z,25.67
2018-12-09T20:47:31.714Z,25.70
2018-12-09T20:49:38.031Z,26.78
2018-12-09T20:51:45.006Z,26.87
2018-12-09T20:53:51.743Z,28.44
2018-12-09T20:55:58.850Z,28.96
2018-12-09T20:58:06.097Z,28.88
2018-12-09T21:00:13.263Z,29.45
2018-12-09T21:02:20.199Z,29.96
2018-12-09T21:04:27.394Z,29.61
2018-12-09T21:06:34.177Z,29.68
2018-12-09T21:08:41.080Z,30.15
2018-12-09T21:10:47.910Z,29.78
2018-12-09T21:12:55.126Z,29.79
2018-12-09T21:15:02.058Z,29.98
2018-12-09T21:17:08.920Z,30.33
2018-12-09T21:19:16.008Z,30.91
2018-12-09T21:21:22.837Z,30.88
2018-12-09T21:23:29.756Z,30.95
2018-12-09T21:25:36.632Z,31.32
2018-12-09T21:27:43.679Z,30.85
2018-12-09T21:29:50.450Z,30.90
2018-12-09T21:31:57.454Z,30.66
2018-12-09T21:34:04.489Z,31.33
2018-12-09T21:36:11.454Z,31.11
2018-12-09T21:38:18.200Z,31.09
2018-12-09T21:40:25.122Z,31.62
2018-12-09T21:42:31.922Z,31.13
2018-12-09T21:44:38.960Z,31.15
2018-12-09T21:46:46.021Z,30.98
2018-12-09T21:48:52.802Z,30.68
2018-12-09T21:50:59.627Z,31.26
2018-12-09T21:53:06.521Z,31.94
2018-12-09T21:55:13.389Z,31.21
2018-12-09T21:57:20.185Z,31.45
2018-12-09T21:59:27.010Z,31.33
2018-12-09T22:01:34.200Z,30.58
2018-12-09T22:03:40.779Z,31.01
2018-12-09T22:05:47.662Z,30.65
2018-12-09T22:07:54.606Z,30.41
2018-12-09T22:10:01.330Z,30.90
2018-12-09T22:12:08.018Z,30.63
2018-12-09T22:14:15.063Z,31.02
2018-12-09T22:16:21.990Z,30.62
2018-12-09T22:18:28.908Z,30.36
2018-12-09T22:20:35.897Z,30.42
2018-12-09T22:22:42.974Z,31.03
2018-12-09T22:24:49.596Z,31.15
2018-12-09T22:26:56.646Z,30.52
2018-12-09T22:29:03.525Z,30.89
2018-12-09T22:31:10.194Z,30.32
2018-12-09T22:33:16.822Z,30.74
2018-12-09T22:35:23.894Z,31.21
2018-12-09T22:37:30.870Z,31.14
2018-12-09T22:39:37.790Z,31.14
2018-12-09T22:41:44.770Z,30.99
2018-12-09T22:43:51.582Z,31.40
2018-12-09T22:45:58.494Z,31.37
2018-12-09T22:48:05.684Z,31.03
2018-12-09T22:50:12.515Z,31.40
2018-12-09T22:52:19.848Z,31.25
2018-12-09T22:54:26.562Z,31.49
2018-12-09T22:56:33.346Z,31.71
2018-12-09T22:58:39.832Z,30.70
2018-12-09T23:00:53.249Z,31.44
2018-12-09T23:03:06.397Z,31.52
2018-12-09T23:05:13.337Z,30.90
2018-12-09T23:07:24.670Z,31.42
2018-12-09T23:09:31.427Z,31.27
2018-12-09T23:11:38.483Z,31.39
2018-12-09T23:13:45.338Z,31.30
2018-12-09T23:15:52.229Z,31.77
2018-12-09T23:17:59.385Z,31.26
2018-12-09T23:20:06.433Z,31.07
2018-12-09T23:22:13.358Z,31.01
2018-12-09T23:24:20.344Z,31.31
2018-12-09T23:26:27.061Z,30.85
2018-12-09T23:28:33.973Z,31.68
2018-12-09T23:30:40.623Z,31.37
2018-12-09T23:32:47.534Z,31.57
2018-12-09T23:34:54.316Z,31.50
2018-12-09T23:37:01.207Z,31.17
2018-12-09T23:39:08.788Z,31.39
2018-12-09T23:41:16.390Z,31.41
2018-12-09T23:43:23.245Z,31.04
2018-12-09T23:45:30.059Z,31.50
2018-12-09T23:47:37.081Z,31.47
2018-12-09T23:49:43.947Z,31.41
2018-12-09T23:51:50.831Z,31.09
2018-12-09T23:53:57.631Z,30.92
2018-12-09T23:56:04.397Z,31.77
2018-12-09T23:58:11.502Z,32.07
